Shelbyville, Michigan
Current Conditions -  °F | °C
As of 2:53 PM on Saturday 25 Oct 2014 (Local Time) from KGRR Reporting Station
Few Clouds Few Clouds  
Wind Chill: 66°   Ceiling: Unl
Heat Index: 66°   Visibility: 10mi
Dew Point: 35°   Wind: 17mph
Humidity: 32%   Direction: 280°W
Pressure: 29.81"   Gusts: 25mph
Location:  42.59°N, 85.64°W
Report Text: KGRR 251853Z 28015G22KT 10SM FEW200 19/02 A2981 RMK AO2 PK WND 27030/1835 SLP095 T01890017
Loading
Personal Weather Stations






























Interactive Weather Map
Tropical Storm Tracking
New forecast layout! Learn more

10-Day Weather Forecast

Advertisements
Track Severe Weather on mobile